sensor_id;sensor_type;location;lat;lon;timestamp;P1;durP1;ratioP1;P2;durP2;ratioP2
14007;SDS011;61651;45.508;12.232;2023-06-14T00:00:34;7.63;;;7.03;;
14007;SDS011;61651;45.508;12.232;2023-06-14T00:03:36;7.63;;;6.93;;
14007;SDS011;61651;45.508;12.232;2023-06-14T00:06:40;8.10;;;7.30;;
14007;SDS011;61651;45.508;12.232;2023-06-14T00:09:42;7.43;;;6.82;;
14007;SDS011;61651;45.508;12.232;2023-06-14T00:12:44;7.57;;;6.97;;
14007;SDS011;61651;45.508;12.232;2023-06-14T00:15:46;7.53;;;6.82;;
14007;SDS011;61651;45.508;12.232;2023-06-14T00:18:48;6.78;;;6.28;;
14007;SDS011;61651;45.508;12.232;2023-06-14T00:21:53;7.55;;;6.88;;
14007;SDS011;61651;45.508;12.232;2023-06-14T00:24:55;9.73;;;7.68;;
14007;SDS011;61651;45.508;12.232;2023-06-14T00:27:57;8.50;;;7.72;;
14007;SDS011;61651;45.508;12.232;2023-06-14T00:30:59;8.63;;;7.72;;
14007;SDS011;61651;45.508;12.232;2023-06-14T00:34:01;7.85;;;7.13;;
14007;SDS011;61651;45.508;12.232;2023-06-14T00:37:05;8.63;;;7.18;;
14007;SDS011;61651;45.508;12.232;2023-06-14T00:40:07;7.22;;;6.53;;
14007;SDS011;61651;45.508;12.232;2023-06-14T00:43:09;8.02;;;7.28;;
14007;SDS011;61651;45.508;12.232;2023-06-14T00:46:11;7.88;;;7.13;;
14007;SDS011;61651;45.508;12.232;2023-06-14T00:49:13;7.50;;;6.90;;
14007;SDS011;61651;45.508;12.232;2023-06-14T00:52:18;8.35;;;7.65;;
14007;SDS011;61651;45.508;12.232;2023-06-14T00:55:21;7.78;;;7.07;;
14007;SDS011;61651;45.508;12.232;2023-06-14T00:58:23;7.97;;;7.13;;
14007;SDS011;61651;45.508;12.232;2023-06-14T01:01:25;8.57;;;7.72;;
14007;SDS011;61651;45.508;12.232;2023-06-14T01:04:28;8.95;;;8.07;;
14007;SDS011;61651;45.508;12.232;2023-06-14T01:07:33;8.55;;;7.70;;
14007;SDS011;61651;45.508;12.232;2023-06-14T01:10:45;8.82;;;7.90;;
14007;SDS011;61651;45.508;12.232;2023-06-14T01:13:53;7.82;;;7.20;;
14007;SDS011;61651;45.508;12.232;2023-06-14T01:16:56;7.80;;;7.20;;
14007;SDS011;61651;45.508;12.232;2023-06-14T01:20:00;9.48;;;7.55;;
14007;SDS011;61651;45.508;12.232;2023-06-14T01:23:07;7.25;;;6.65;;
14007;SDS011;61651;45.508;12.232;2023-06-14T01:26:09;8.02;;;7.13;;
14007;SDS011;61651;45.508;12.232;2023-06-14T01:29:12;8.60;;;7.45;;
14007;SDS011;61651;45.508;12.232;2023-06-14T01:32:17;8.00;;;7.30;;
14007;SDS011;61651;45.508;12.232;2023-06-14T01:35:20;7.95;;;7.22;;
14007;SDS011;61651;45.508;12.232;2023-06-14T01:38:25;7.80;;;7.20;;
14007;SDS011;61651;45.508;12.232;2023-06-14T01:41:28;8.30;;;7.47;;
14007;SDS011;61651;45.508;12.232;2023-06-14T01:44:30;8.15;;;7.32;;
14007;SDS011;61651;45.508;12.232;2023-06-14T01:47:33;7.75;;;7.10;;
14007;SDS011;61651;45.508;12.232;2023-06-14T01:50:36;8.40;;;7.65;;
14007;SDS011;61651;45.508;12.232;2023-06-14T01:53:39;7.82;;;7.20;;
14007;SDS011;61651;45.508;12.232;2023-06-14T01:56:41;8.05;;;7.35;;
14007;SDS011;61651;45.508;12.232;2023-06-14T01:59:44;7.22;;;6.53;;
14007;SDS011;61651;45.508;12.232;2023-06-14T02:02:48;7.45;;;6.75;;
14007;SDS011;61651;45.508;12.232;2023-06-14T02:05:50;7.45;;;6.60;;
14007;SDS011;61651;45.508;12.232;2023-06-14T02:08:53;6.90;;;6.32;;
14007;SDS011;61651;45.508;12.232;2023-06-14T02:11:55;6.93;;;6.32;;
14007;SDS011;61651;45.508;12.232;2023-06-14T02:14:57;7.97;;;7.28;;
14007;SDS011;61651;45.508;12.232;2023-06-14T02:17:59;6.90;;;6.38;;
14007;SDS011;61651;45.508;12.232;2023-06-14T02:21:03;6.90;;;6.30;;
14007;SDS011;61651;45.508;12.232;2023-06-14T02:24:06;7.18;;;6.57;;
14007;SDS011;61651;45.508;12.232;2023-06-14T02:27:08;7.38;;;6.68;;
14007;SDS011;61651;45.508;12.232;2023-06-14T02:30:11;7.10;;;6.50;;
14007;SDS011;61651;45.508;12.232;2023-06-14T02:33:15;6.65;;;6.15;;
14007;SDS011;61651;45.508;12.232;2023-06-14T02:36:17;6.90;;;6.30;;
14007;SDS011;61651;45.508;12.232;2023-06-14T02:39:22;6.97;;;6.47;;
14007;SDS011;61651;45.508;12.232;2023-06-14T02:42:23;7.45;;;6.18;;
14007;SDS011;61651;45.508;12.232;2023-06-14T02:45:25;7.05;;;6.45;;
14007;SDS011;61651;45.508;12.232;2023-06-14T02:48:28;6.80;;;6.20;;
14007;SDS011;61651;45.508;12.232;2023-06-14T02:51:29;6.15;;;5.63;;
14007;SDS011;61651;45.508;12.232;2023-06-14T02:54:33;7.18;;;6.57;;
14007;SDS011;61651;45.508;12.232;2023-06-14T02:57:35;6.13;;;5.72;;
14007;SDS011;61651;45.508;12.232;2023-06-14T03:00:37;5.93;;;5.43;;
14007;SDS011;61651;45.508;12.232;2023-06-14T03:03:40;6.57;;;5.97;;
14007;SDS011;61651;45.508;12.232;2023-06-14T03:06:42;6.32;;;5.72;;
14007;SDS011;61651;45.508;12.232;2023-06-14T03:09:51;6.00;;;5.50;;
14007;SDS011;61651;45.508;12.232;2023-06-14T03:12:53;6.10;;;5.40;;
14007;SDS011;61651;45.508;12.232;2023-06-14T03:15:55;5.57;;;5.07;;
14007;SDS011;61651;45.508;12.232;2023-06-14T03:18:57;6.40;;;5.90;;
14007;SDS011;61651;45.508;12.232;2023-06-14T03:21:59;7.18;;;6.55;;
14007;SDS011;61651;45.508;12.232;2023-06-14T03:25:04;6.28;;;5.75;;
14007;SDS011;61651;45.508;12.232;2023-06-14T03:28:07;6.65;;;6.15;;
14007;SDS011;61651;45.508;12.232;2023-06-14T03:31:09;6.60;;;6.00;;
14007;SDS011;61651;45.508;12.232;2023-06-14T03:34:11;7.55;;;6.35;;
14007;SDS011;61651;45.508;12.232;2023-06-14T03:37:13;6.30;;;5.70;;
14007;SDS011;61651;45.508;12.232;2023-06-14T03:40:17;8.48;;;7.72;;
14007;SDS011;61651;45.508;12.232;2023-06-14T03:43:20;9.25;;;8.32;;
14007;SDS011;61651;45.508;12.232;2023-06-14T03:46:22;7.95;;;7.25;;
14007;SDS011;61651;45.508;12.232;2023-06-14T03:49:24;9.63;;;8.73;;
14007;SDS011;61651;45.508;12.232;2023-06-14T03:52:26;7.63;;;7.03;;
14007;SDS011;61651;45.508;12.232;2023-06-14T03:55:29;8.15;;;7.43;;
14007;SDS011;61651;45.508;12.232;2023-06-14T03:58:33;8.65;;;7.95;;
14007;SDS011;61651;45.508;12.232;2023-06-14T04:01:35;8.13;;;7.32;;
14007;SDS011;61651;45.508;12.232;2023-06-14T04:04:37;8.38;;;7.57;;
14007;SDS011;61651;45.508;12.232;2023-06-14T04:07:39;8.52;;;7.65;;
14007;SDS011;61651;45.508;12.232;2023-06-14T04:10:46;8.13;;;7.32;;
14007;SDS011;61651;45.508;12.232;2023-06-14T04:13:48;8.27;;;7.47;;
14007;SDS011;61651;45.508;12.232;2023-06-14T04:16:50;8.68;;;7.97;;
14007;SDS011;61651;45.508;12.232;2023-06-14T04:19:52;9.20;;;7.18;;
14007;SDS011;61651;45.508;12.232;2023-06-14T04:22:56;8.00;;;7.30;;
14007;SDS011;61651;45.508;12.232;2023-06-14T04:25:59;7.55;;;6.95;;
14007;SDS011;61651;45.508;12.232;2023-06-14T04:29:02;8.02;;;7.43;;
14007;SDS011;61651;45.508;12.232;2023-06-14T04:32:04;7.65;;;6.85;;
14007;SDS011;61651;45.508;12.232;2023-06-14T04:35:10;8.15;;;6.47;;
14007;SDS011;61651;45.508;12.232;2023-06-14T04:38:12;7.38;;;6.75;;
14007;SDS011;61651;45.508;12.232;2023-06-14T04:41:17;7.07;;;6.47;;
14007;SDS011;61651;45.508;12.232;2023-06-14T04:44:19;7.55;;;6.53;;
14007;SDS011;61651;45.508;12.232;2023-06-14T04:47:24;6.65;;;6.00;;
14007;SDS011;61651;45.508;12.232;2023-06-14T04:50:29;6.35;;;5.53;;
14007;SDS011;61651;45.508;12.232;2023-06-14T04:53:33;6.82;;;6.13;;
14007;SDS011;61651;45.508;12.232;2023-06-14T04:56:36;6.55;;;5.80;;
14007;SDS011;61651;45.508;12.232;2023-06-14T04:59:38;6.22;;;5.72;;
14007;SDS011;61651;45.508;12.232;2023-06-14T05:02:40;6.35;;;5.75;;
14007;SDS011;61651;45.508;12.232;2023-06-14T05:05:42;6.30;;;5.70;;
14007;SDS011;61651;45.508;12.232;2023-06-14T05:08:45;6.13;;;5.63;;
14007;SDS011;61651;45.508;12.232;2023-06-14T05:11:48;5.88;;;5.43;;
14007;SDS011;61651;45.508;12.232;2023-06-14T05:14:50;7.22;;;6.22;;
14007;SDS011;61651;45.508;12.232;2023-06-14T05:17:52;6.30;;;5.70;;
14007;SDS011;61651;45.508;12.232;2023-06-14T05:20:55;6.45;;;5.75;;
14007;SDS011;61651;45.508;12.232;2023-06-14T05:23:57;7.40;;;5.25;;
14007;SDS011;61651;45.508;12.232;2023-06-14T05:27:00;5.82;;;4.90;;
14007;SDS011;61651;45.508;12.232;2023-06-14T05:30:02;4.95;;;4.55;;
14007;SDS011;61651;45.508;12.232;2023-06-14T05:33:05;8.27;;;5.00;;
14007;SDS011;61651;45.508;12.232;2023-06-14T05:36:07;5.20;;;4.70;;
14007;SDS011;61651;45.508;12.232;2023-06-14T05:39:09;5.18;;;4.78;;
14007;SDS011;61651;45.508;12.232;2023-06-14T05:42:12;5.72;;;5.20;;
14007;SDS011;61651;45.508;12.232;2023-06-14T05:45:14;4.97;;;4.50;;
14007;SDS011;61651;45.508;12.232;2023-06-14T05:48:16;7.63;;;4.53;;
14007;SDS011;61651;45.508;12.232;2023-06-14T05:51:18;6.93;;;5.28;;
14007;SDS011;61651;45.508;12.232;2023-06-14T05:54:21;5.88;;;4.47;;
14007;SDS011;61651;45.508;12.232;2023-06-14T05:57:24;4.72;;;4.32;;
14007;SDS011;61651;45.508;12.232;2023-06-14T06:00:26;5.50;;;4.93;;
14007;SDS011;61651;45.508;12.232;2023-06-14T06:03:28;5.13;;;4.63;;
14007;SDS011;61651;45.508;12.232;2023-06-14T06:06:30;5.18;;;4.68;;
14007;SDS011;61651;45.508;12.232;2023-06-14T06:09:33;4.88;;;4.43;;
14007;SDS011;61651;45.508;12.232;2023-06-14T06:12:37;4.97;;;4.47;;
14007;SDS011;61651;45.508;12.232;2023-06-14T06:15:39;5.28;;;4.78;;
14007;SDS011;61651;45.508;12.232;2023-06-14T06:18:41;5.32;;;4.63;;
14007;SDS011;61651;45.508;12.232;2023-06-14T06:21:43;5.93;;;4.68;;
14007;SDS011;61651;45.508;12.232;2023-06-14T06:24:45;5.55;;;5.05;;
14007;SDS011;61651;45.508;12.232;2023-06-14T06:27:48;4.57;;;4.15;;
14007;SDS011;61651;45.508;12.232;2023-06-14T06:30:50;4.75;;;4.35;;
14007;SDS011;61651;45.508;12.232;2023-06-14T06:33:53;4.82;;;4.32;;
14007;SDS011;61651;45.508;12.232;2023-06-14T06:36:55;4.93;;;4.40;;
14007;SDS011;61651;45.508;12.232;2023-06-14T06:39:57;6.22;;;4.90;;
14007;SDS011;61651;45.508;12.232;2023-06-14T06:43:01;6.43;;;5.00;;
14007;SDS011;61651;45.508;12.232;2023-06-14T06:46:03;6.45;;;4.78;;
14007;SDS011;61651;45.508;12.232;2023-06-14T06:49:05;4.82;;;4.32;;
14007;SDS011;61651;45.508;12.232;2023-06-14T06:52:08;5.47;;;4.80;;
14007;SDS011;61651;45.508;12.232;2023-06-14T06:55:10;8.18;;;4.50;;
14007;SDS011;61651;45.508;12.232;2023-06-14T06:58:14;4.65;;;4.28;;
14007;SDS011;61651;45.508;12.232;2023-06-14T07:01:16;6.45;;;5.10;;
14007;SDS011;61651;45.508;12.232;2023-06-14T07:04:18;10.05;;;4.50;;
14007;SDS011;61651;45.508;12.232;2023-06-14T07:07:20;6.18;;;4.47;;
14007;SDS011;61651;45.508;12.232;2023-06-14T07:10:22;5.05;;;4.43;;
14007;SDS011;61651;45.508;12.232;2023-06-14T07:13:26;7.15;;;4.68;;
14007;SDS011;61651;45.508;12.232;2023-06-14T07:16:28;4.40;;;4.00;;
14007;SDS011;61651;45.508;12.232;2023-06-14T07:19:30;4.80;;;4.40;;
14007;SDS011;61651;45.508;12.232;2023-06-14T07:22:33;5.50;;;4.15;;
14007;SDS011;61651;45.508;12.232;2023-06-14T07:25:35;6.00;;;4.10;;
14007;SDS011;61651;45.508;12.232;2023-06-14T07:28:38;6.07;;;4.38;;
14007;SDS011;61651;45.508;12.232;2023-06-14T07:31:40;4.85;;;4.38;;
14007;SDS011;61651;45.508;12.232;2023-06-14T07:34:42;4.18;;;3.78;;
14007;SDS011;61651;45.508;12.232;2023-06-14T07:37:44;4.82;;;3.70;;
14007;SDS011;61651;45.508;12.232;2023-06-14T07:40:47;5.35;;;3.67;;
14007;SDS011;61651;45.508;12.232;2023-06-14T07:43:50;4.80;;;4.18;;
14007;SDS011;61651;45.508;12.232;2023-06-14T07:46:52;4.03;;;3.70;;
14007;SDS011;61651;45.508;12.232;2023-06-14T07:49:58;3.92;;;3.63;;
14007;SDS011;61651;45.508;12.232;2023-06-14T07:53:00;5.65;;;4.05;;
14007;SDS011;61651;45.508;12.232;2023-06-14T07:56:03;4.82;;;3.90;;
14007;SDS011;61651;45.508;12.232;2023-06-14T07:59:07;6.32;;;4.10;;
14007;SDS011;61651;45.508;12.232;2023-06-14T08:02:09;4.10;;;3.70;;
14007;SDS011;61651;45.508;12.232;2023-06-14T08:05:11;5.43;;;4.00;;
14007;SDS011;61651;45.508;12.232;2023-06-14T08:08:14;3.92;;;3.60;;
14007;SDS011;61651;45.508;12.232;2023-06-14T08:11:17;4.82;;;3.65;;
14007;SDS011;61651;45.508;12.232;2023-06-14T08:14:20;3.75;;;3.45;;
14007;SDS011;61651;45.508;12.232;2023-06-14T08:17:23;4.13;;;3.83;;
14007;SDS011;61651;45.508;12.232;2023-06-14T08:20:25;4.68;;;3.92;;
14007;SDS011;61651;45.508;12.232;2023-06-14T08:23:27;4.13;;;3.80;;
14007;SDS011;61651;45.508;12.232;2023-06-14T08:26:29;3.53;;;3.22;;
14007;SDS011;61651;45.508;12.232;2023-06-14T08:29:33;7.70;;;4.13;;
14007;SDS011;61651;45.508;12.232;2023-06-14T08:32:35;4.32;;;3.92;;
14007;SDS011;61651;45.508;12.232;2023-06-14T08:35:37;3.80;;;3.50;;
14007;SDS011;61651;45.508;12.232;2023-06-14T08:38:39;4.03;;;3.65;;
14007;SDS011;61651;45.508;12.232;2023-06-14T08:41:42;4.50;;;3.90;;
14007;SDS011;61651;45.508;12.232;2023-06-14T08:44:48;8.02;;;3.78;;
14007;SDS011;61651;45.508;12.232;2023-06-14T08:47:50;3.70;;;3.40;;
14007;SDS011;61651;45.508;12.232;2023-06-14T08:50:57;5.47;;;3.50;;
14007;SDS011;61651;45.508;12.232;2023-06-14T08:54:03;4.82;;;3.75;;
14007;SDS011;61651;45.508;12.232;2023-06-14T08:57:06;4.07;;;3.77;;
14007;SDS011;61651;45.508;12.232;2023-06-14T09:00:14;5.25;;;3.50;;
14007;SDS011;61651;45.508;12.232;2023-06-14T09:03:17;4.40;;;3.70;;
14007;SDS011;61651;45.508;12.232;2023-06-14T09:06:20;6.43;;;3.72;;
14007;SDS011;61651;45.508;12.232;2023-06-14T09:09:24;7.55;;;4.30;;
14007;SDS011;61651;45.508;12.232;2023-06-14T09:12:27;4.10;;;3.70;;
14007;SDS011;61651;45.508;12.232;2023-06-14T09:15:31;4.22;;;3.70;;
14007;SDS011;61651;45.508;12.232;2023-06-14T09:18:34;4.65;;;3.40;;
14007;SDS011;61651;45.508;12.232;2023-06-14T09:21:37;4.20;;;3.83;;
14007;SDS011;61651;45.508;12.232;2023-06-14T09:24:39;5.45;;;3.70;;
14007;SDS011;61651;45.508;12.232;2023-06-14T09:27:43;4.35;;;3.67;;
14007;SDS011;61651;45.508;12.232;2023-06-14T09:30:48;4.28;;;3.85;;
14007;SDS011;61651;45.508;12.232;2023-06-14T09:33:50;4.43;;;4.03;;
14007;SDS011;61651;45.508;12.232;2023-06-14T09:36:52;5.10;;;3.63;;
14007;SDS011;61651;45.508;12.232;2023-06-14T09:39:55;5.85;;;3.80;;
14007;SDS011;61651;45.508;12.232;2023-06-14T09:42:57;5.43;;;3.55;;
14007;SDS011;61651;45.508;12.232;2023-06-14T09:46:01;4.32;;;3.92;;
14007;SDS011;61651;45.508;12.232;2023-06-14T09:49:06;4.00;;;3.60;;
14007;SDS011;61651;45.508;12.232;2023-06-14T09:52:08;4.55;;;3.55;;
14007;SDS011;61651;45.508;12.232;2023-06-14T09:55:14;4.72;;;3.50;;
14007;SDS011;61651;45.508;12.232;2023-06-14T09:58:17;4.40;;;3.42;;
14007;SDS011;61651;45.508;12.232;2023-06-14T10:01:23;5.72;;;3.75;;
14007;SDS011;61651;45.508;12.232;2023-06-14T10:04:27;4.75;;;3.63;;
14007;SDS011;61651;45.508;12.232;2023-06-14T10:07:34;6.43;;;3.67;;
14007;SDS011;61651;45.508;12.232;2023-06-14T10:10:39;4.53;;;4.13;;
14007;SDS011;61651;45.508;12.232;2023-06-14T10:13:41;3.88;;;3.58;;
14007;SDS011;61651;45.508;12.232;2023-06-14T10:16:47;6.40;;;4.03;;
14007;SDS011;61651;45.508;12.232;2023-06-14T10:19:55;4.38;;;3.80;;
14007;SDS011;61651;45.508;12.232;2023-06-14T10:23:06;4.05;;;3.60;;
14007;SDS011;61651;45.508;12.232;2023-06-14T10:26:17;4.25;;;3.85;;
14007;SDS011;61651;45.508;12.232;2023-06-14T10:29:25;3.67;;;3.38;;
14007;SDS011;61651;45.508;12.232;2023-06-14T10:32:33;3.95;;;3.58;;
14007;SDS011;61651;45.508;12.232;2023-06-14T10:35:35;3.90;;;3.53;;
14007;SDS011;61651;45.508;12.232;2023-06-14T10:38:37;4.05;;;3.75;;
14007;SDS011;61651;45.508;12.232;2023-06-14T10:41:40;4.95;;;3.92;;
14007;SDS011;61651;45.508;12.232;2023-06-14T10:44:45;3.92;;;3.53;;
14007;SDS011;61651;45.508;12.232;2023-06-14T10:47:52;7.47;;;4.10;;
14007;SDS011;61651;45.508;12.232;2023-06-14T10:51:00;6.60;;;3.75;;
14007;SDS011;61651;45.508;12.232;2023-06-14T10:54:02;5.03;;;3.78;;
14007;SDS011;61651;45.508;12.232;2023-06-14T10:57:06;3.95;;;3.65;;
14007;SDS011;61651;45.508;12.232;2023-06-14T11:00:09;4.07;;;3.72;;
14007;SDS011;61651;45.508;12.232;2023-06-14T11:03:36;6.18;;;4.40;;
14007;SDS011;61651;45.508;12.232;2023-06-14T11:06:51;3.78;;;3.42;;
14007;SDS011;61651;45.508;12.232;2023-06-14T11:10:05;4.22;;;3.45;;
14007;SDS011;61651;45.508;12.232;2023-06-14T11:13:17;3.67;;;3.38;;
14007;SDS011;61651;45.508;12.232;2023-06-14T11:16:19;4.00;;;3.60;;
14007;SDS011;61651;45.508;12.232;2023-06-14T11:19:22;4.35;;;3.80;;
14007;SDS011;61651;45.508;12.232;2023-06-14T11:22:25;4.15;;;3.78;;
14007;SDS011;61651;45.508;12.232;2023-06-14T11:25:27;4.45;;;3.65;;
14007;SDS011;61651;45.508;12.232;2023-06-14T11:28:38;4.90;;;3.80;;
14007;SDS011;61651;45.508;12.232;2023-06-14T11:31:42;4.85;;;3.85;;
14007;SDS011;61651;45.508;12.232;2023-06-14T11:34:47;4.38;;;3.47;;
14007;SDS011;61651;45.508;12.232;2023-06-14T11:37:49;5.72;;;3.92;;
14007;SDS011;61651;45.508;12.232;2023-06-14T11:40:58;3.97;;;3.65;;
14007;SDS011;61651;45.508;12.232;2023-06-14T11:44:00;4.60;;;4.10;;
14007;SDS011;61651;45.508;12.232;2023-06-14T11:47:03;8.10;;;3.45;;
14007;SDS011;61651;45.508;12.232;2023-06-14T11:50:08;5.53;;;3.65;;
14007;SDS011;61651;45.508;12.232;2023-06-14T11:53:10;4.38;;;3.55;;
14007;SDS011;61651;45.508;12.232;2023-06-14T11:56:13;5.28;;;3.60;;
14007;SDS011;61651;45.508;12.232;2023-06-14T11:59:15;4.13;;;3.58;;
14007;SDS011;61651;45.508;12.232;2023-06-14T12:02:18;4.25;;;3.70;;
14007;SDS011;61651;45.508;12.232;2023-06-14T12:05:22;3.50;;;3.20;;
14007;SDS011;61651;45.508;12.232;2023-06-14T12:08:31;5.45;;;3.88;;
14007;SDS011;61651;45.508;12.232;2023-06-14T12:11:38;5.75;;;4.03;;
14007;SDS011;61651;45.508;12.232;2023-06-14T12:14:41;7.53;;;3.72;;
14007;SDS011;61651;45.508;12.232;2023-06-14T12:17:43;4.80;;;3.80;;
14007;SDS011;61651;45.508;12.232;2023-06-14T12:20:48;7.07;;;3.83;;
14007;SDS011;61651;45.508;12.232;2023-06-14T12:23:51;4.32;;;3.40;;
14007;SDS011;61651;45.508;12.232;2023-06-14T12:26:54;3.50;;;3.20;;
14007;SDS011;61651;45.508;12.232;2023-06-14T12:29:59;3.75;;;3.45;;
14007;SDS011;61651;45.508;12.232;2023-06-14T12:33:02;4.20;;;3.50;;
14007;SDS011;61651;45.508;12.232;2023-06-14T12:36:06;3.85;;;3.55;;
14007;SDS011;61651;45.508;12.232;2023-06-14T12:39:09;3.92;;;3.45;;
14007;SDS011;61651;45.508;12.232;2023-06-14T12:42:11;4.97;;;3.55;;
14007;SDS011;61651;45.508;12.232;2023-06-14T12:45:14;4.47;;;3.78;;
14007;SDS011;61651;45.508;12.232;2023-06-14T12:48:16;5.55;;;4.07;;
14007;SDS011;61651;45.508;12.232;2023-06-14T12:51:20;4.03;;;3.70;;
14007;SDS011;61651;45.508;12.232;2023-06-14T12:54:22;4.75;;;4.35;;
14007;SDS011;61651;45.508;12.232;2023-06-14T12:57:25;5.43;;;4.45;;
14007;SDS011;61651;45.508;12.232;2023-06-14T13:00:27;4.00;;;3.63;;
14007;SDS011;61651;45.508;12.232;2023-06-14T13:03:30;5.20;;;4.53;;
14007;SDS011;61651;45.508;12.232;2023-06-14T13:06:34;6.35;;;4.93;;
14007;SDS011;61651;45.508;12.232;2023-06-14T13:09:36;5.47;;;4.03;;
14007;SDS011;61651;45.508;12.232;2023-06-14T13:12:39;4.88;;;4.45;;
14007;SDS011;61651;45.508;12.232;2023-06-14T13:15:41;6.93;;;4.60;;
14007;SDS011;61651;45.508;12.232;2023-06-14T13:18:43;5.35;;;4.85;;
14007;SDS011;61651;45.508;12.232;2023-06-14T13:21:47;5.50;;;4.30;;
14007;SDS011;61651;45.508;12.232;2023-06-14T13:24:49;8.10;;;4.13;;
14007;SDS011;61651;45.508;12.232;2023-06-14T13:27:51;4.10;;;3.72;;
14007;SDS011;61651;45.508;12.232;2023-06-14T13:30:53;7.00;;;4.07;;
14007;SDS011;61651;45.508;12.232;2023-06-14T13:33:55;4.43;;;4.03;;
14007;SDS011;61651;45.508;12.232;2023-06-14T13:36:59;4.50;;;4.10;;
14007;SDS011;61651;45.508;12.232;2023-06-14T13:40:01;5.80;;;4.68;;
14007;SDS011;61651;45.508;12.232;2023-06-14T13:43:03;4.38;;;3.78;;
14007;SDS011;61651;45.508;12.232;2023-06-14T13:46:05;4.20;;;3.78;;
14007;SDS011;61651;45.508;12.232;2023-06-14T13:49:07;4.05;;;3.75;;
14007;SDS011;61651;45.508;12.232;2023-06-14T13:52:11;5.47;;;4.10;;
14007;SDS011;61651;45.508;12.232;2023-06-14T13:55:13;4.97;;;4.55;;
14007;SDS011;61651;45.508;12.232;2023-06-14T13:58:15;4.88;;;4.38;;
14007;SDS011;61651;45.508;12.232;2023-06-14T14:01:17;4.88;;;4.38;;
14007;SDS011;61651;45.508;12.232;2023-06-14T14:04:20;6.15;;;4.00;;
14007;SDS011;61651;45.508;12.232;2023-06-14T14:07:24;4.45;;;3.92;;
14007;SDS011;61651;45.508;12.232;2023-06-14T14:10:26;5.47;;;4.00;;
14007;SDS011;61651;45.508;12.232;2023-06-14T14:13:28;6.88;;;4.22;;
14007;SDS011;61651;45.508;12.232;2023-06-14T14:16:30;4.72;;;4.10;;
14007;SDS011;61651;45.508;12.232;2023-06-14T14:19:32;4.93;;;3.60;;
14007;SDS011;61651;45.508;12.232;2023-06-14T14:22:35;5.25;;;3.78;;
14007;SDS011;61651;45.508;12.232;2023-06-14T14:25:37;3.40;;;3.20;;
14007;SDS011;61651;45.508;12.232;2023-06-14T14:28:39;4.23;;;3.83;;
14007;SDS011;61651;45.508;12.232;2023-06-14T14:31:41;5.03;;;3.83;;
14007;SDS011;61651;45.508;12.232;2023-06-14T14:34:43;4.78;;;4.25;;
14007;SDS011;61651;45.508;12.232;2023-06-14T14:37:46;4.07;;;3.70;;
14007;SDS011;61651;45.508;12.232;2023-06-14T14:40:49;4.43;;;3.58;;
14007;SDS011;61651;45.508;12.232;2023-06-14T14:43:51;4.88;;;3.63;;
14007;SDS011;61651;45.508;12.232;2023-06-14T14:46:53;3.92;;;3.60;;
14007;SDS011;61651;45.508;12.232;2023-06-14T14:49:55;3.60;;;3.28;;
14007;SDS011;61651;45.508;12.232;2023-06-14T14:52:58;4.47;;;3.20;;
14007;SDS011;61651;45.508;12.232;2023-06-14T14:56:00;7.95;;;3.53;;
14007;SDS011;61651;45.508;12.232;2023-06-14T14:59:02;4.07;;;3.47;;
14007;SDS011;61651;45.508;12.232;2023-06-14T15:02:05;3.42;;;3.13;;
14007;SDS011;61651;45.508;12.232;2023-06-14T15:05:07;3.53;;;3.20;;
14007;SDS011;61651;45.508;12.232;2023-06-14T15:08:10;5.22;;;3.45;;
14007;SDS011;61651;45.508;12.232;2023-06-14T15:11:12;3.30;;;3.08;;
14007;SDS011;61651;45.508;12.232;2023-06-14T15:14:14;3.55;;;3.05;;
14007;SDS011;61651;45.508;12.232;2023-06-14T15:17:17;3.85;;;3.50;;
14007;SDS011;61651;45.508;12.232;2023-06-14T15:20:19;6.15;;;3.70;;
14007;SDS011;61651;45.508;12.232;2023-06-14T15:23:23;3.85;;;3.13;;
14007;SDS011;61651;45.508;12.232;2023-06-14T15:26:25;4.28;;;3.50;;
14007;SDS011;61651;45.508;12.232;2023-06-14T15:29:27;4.03;;;3.40;;
14007;SDS011;61651;45.508;12.232;2023-06-14T15:32:29;3.47;;;3.17;;
14007;SDS011;61651;45.508;12.232;2023-06-14T15:35:31;3.70;;;3.40;;
14007;SDS011;61651;45.508;12.232;2023-06-14T15:38:35;3.55;;;3.25;;
14007;SDS011;61651;45.508;12.232;2023-06-14T15:41:37;4.25;;;3.22;;
14007;SDS011;61651;45.508;12.232;2023-06-14T15:44:39;4.50;;;3.05;;
14007;SDS011;61651;45.508;12.232;2023-06-14T15:47:43;3.25;;;2.95;;
14007;SDS011;61651;45.508;12.232;2023-06-14T15:50:45;4.07;;;3.30;;
14007;SDS011;61651;45.508;12.232;2023-06-14T15:53:49;3.83;;;3.42;;
14007;SDS011;61651;45.508;12.232;2023-06-14T15:56:52;3.40;;;3.10;;
14007;SDS011;61651;45.508;12.232;2023-06-14T15:59:54;3.33;;;2.90;;
14007;SDS011;61651;45.508;12.232;2023-06-14T16:02:56;3.63;;;3.33;;
14007;SDS011;61651;45.508;12.232;2023-06-14T16:05:58;3.35;;;3.15;;
14007;SDS011;61651;45.508;12.232;2023-06-14T16:09:01;3.65;;;3.22;;
14007;SDS011;61651;45.508;12.232;2023-06-14T16:12:04;3.60;;;3.30;;
14007;SDS011;61651;45.508;12.232;2023-06-14T16:15:07;3.75;;;3.15;;
14007;SDS011;61651;45.508;12.232;2023-06-14T16:18:10;3.20;;;3.00;;
14007;SDS011;61651;45.508;12.232;2023-06-14T16:21:12;4.40;;;3.40;;
14007;SDS011;61651;45.508;12.232;2023-06-14T16:24:15;3.80;;;3.08;;
14007;SDS011;61651;45.508;12.232;2023-06-14T16:27:17;4.20;;;3.45;;
14007;SDS011;61651;45.508;12.232;2023-06-14T16:30:19;4.55;;;3.10;;
14007;SDS011;61651;45.508;12.232;2023-06-14T16:33:22;3.60;;;3.20;;
14007;SDS011;61651;45.508;12.232;2023-06-14T16:36:24;3.50;;;3.28;;
14007;SDS011;61651;45.508;12.232;2023-06-14T16:39:28;4.78;;;3.17;;
14007;SDS011;61651;45.508;12.232;2023-06-14T16:42:30;3.45;;;3.17;;
14007;SDS011;61651;45.508;12.232;2023-06-14T16:45:32;3.50;;;3.20;;
14007;SDS011;61651;45.508;12.232;2023-06-14T16:48:34;4.53;;;3.22;;
14007;SDS011;61651;45.508;12.232;2023-06-14T16:51:36;5.57;;;3.20;;
14007;SDS011;61651;45.508;12.232;2023-06-14T16:54:42;3.65;;;3.35;;
14007;SDS011;61651;45.508;12.232;2023-06-14T16:57:45;3.67;;;3.28;;
14007;SDS011;61651;45.508;12.232;2023-06-14T17:00:47;3.47;;;3.17;;
14007;SDS011;61651;45.508;12.232;2023-06-14T17:03:49;4.18;;;3.20;;
14007;SDS011;61651;45.508;12.232;2023-06-14T17:06:52;4.18;;;3.20;;
14007;SDS011;61651;45.508;12.232;2023-06-14T17:09:55;3.35;;;3.05;;
14007;SDS011;61651;45.508;12.232;2023-06-14T17:28:38;5.60;;;3.13;;
14007;SDS011;61651;45.508;12.232;2023-06-14T17:31:40;3.45;;;3.15;;
14007;SDS011;61651;45.508;12.232;2023-06-14T17:34:42;3.55;;;3.25;;
14007;SDS011;61651;45.508;12.232;2023-06-14T17:37:44;3.95;;;3.17;;
14007;SDS011;61651;45.508;12.232;2023-06-14T17:40:46;3.50;;;3.20;;
14007;SDS011;61651;45.508;12.232;2023-06-14T17:43:49;4.07;;;3.08;;
14007;SDS011;61651;45.508;12.232;2023-06-14T17:46:52;3.70;;;3.40;;
14007;SDS011;61651;45.508;12.232;2023-06-14T17:49:53;4.15;;;3.08;;
14007;SDS011;61651;45.508;12.232;2023-06-14T17:52:56;3.60;;;3.30;;
14007;SDS011;61651;45.508;12.232;2023-06-14T17:56:01;4.15;;;3.28;;
14007;SDS011;61651;45.508;12.232;2023-06-14T17:59:05;3.45;;;3.15;;
14007;SDS011;61651;45.508;12.232;2023-06-14T18:02:08;5.45;;;3.55;;
14007;SDS011;61651;45.508;12.232;2023-06-14T18:05:11;5.05;;;3.60;;
14007;SDS011;61651;45.508;12.232;2023-06-14T18:08:13;3.85;;;3.45;;
14007;SDS011;61651;45.508;12.232;2023-06-14T18:11:15;4.72;;;3.30;;
14007;SDS011;61651;45.508;12.232;2023-06-14T18:14:18;4.47;;;3.55;;
14007;SDS011;61651;45.508;12.232;2023-06-14T18:17:20;4.55;;;3.25;;
14007;SDS011;61651;45.508;12.232;2023-06-14T18:20:22;3.63;;;3.33;;